Muzaffargarh Weather



Muzaffargarh's Current Weather

Temprature 10o fog

fog

Rain: 0 %

Min Temprature10o
Max Temprature10o
Humidity100
Wind Speed0.8 m/h
Sun Rise07:02:51
Sun Set17:16:34
Current Time: 14-Dec-2019 08:12:55
Lat/Lon: 30.08, 71.19




Muzaffargarh's Geo Location



Muzaffargarh's Weather Forecast

Time Overall Temp Min Temp Max Temp Humidity Wind Speed Rain
14-Dec-2019 (Sat)
11:00:00 few clouds 17.540 17.540 18.270 36 1.58 m/h 0 %
14:00:00 overcast clouds 20.120 20.120 20.670 30 1.83 m/h 0 %
17:00:00 overcast clouds 18.270 18.270 18.630 34 2.76 m/h 0 %
20:00:00 broken clouds 15.290 15.290 15.470 43 2.63 m/h 0 %
23:00:00 scattered clouds 13.810 13.810 13.810 50 2.03 m/h 0 %
15-Dec-2019 (Sun)
02:00:00 clear sky 12.360 12.360 12.360 61 3.51 m/h 0 %
05:00:00 clear sky 11.050 11.050 11.050 67 3 m/h 0 %
08:00:00 clear sky 11.340 11.340 11.340 66 2.51 m/h 0 %
11:00:00 clear sky 18.080 18.080 18.080 38 2.24 m/h 0 %
14:00:00 few clouds 20.760 20.760 20.760 28 2.31 m/h 0 %
17:00:00 few clouds 18.380 18.380 18.380 32 2.04 m/h 0 %
20:00:00 clear sky 15.460 15.460 15.460 42 2.11 m/h 0 %
23:00:00 clear sky 14.410 14.410 14.410 46 2.16 m/h 0 %
16-Dec-2019 (Mon)
02:00:00 clear sky 12.480 12.480 12.480 53 0.52 m/h 0 %
05:00:00 clear sky 11.870 11.870 11.870 56 0.76 m/h 0 %
08:00:00 clear sky 13.100 13.100 13.100 51 0.99 m/h 0 %
11:00:00 clear sky 19.400 19.400 19.400 33 1.31 m/h 0 %
14:00:00 clear sky 21.590 21.590 21.590 27 0.98 m/h 0 %
17:00:00 clear sky 19.150 19.150 19.150 31 1.83 m/h 0 %
20:00:00 clear sky 16.150 16.150 16.150 37 1.68 m/h 0 %
23:00:00 clear sky 14.110 14.110 14.110 41 0.67 m/h 0 %
17-Dec-2019 (Tue)
02:00:00 clear sky 13.320 13.320 13.320 43 1 m/h 0 %
05:00:00 clear sky 12.540 12.540 12.540 44 1.1 m/h 0 %
08:00:00 broken clouds 13.560 13.560 13.560 38 0.54 m/h 0 %
11:00:00 scattered clouds 20.490 20.490 20.490 24 1.22 m/h 0 %
14:00:00 clear sky 22.890 22.890 22.890 15 2.52 m/h 0 %
17:00:00 clear sky 19.550 19.550 19.550 18 1.56 m/h 0 %
20:00:00 clear sky 15.980 15.980 15.980 21 1.58 m/h 0 %
23:00:00 clear sky 14.140 14.140 14.140 22 1.08 m/h 0 %
18-Dec-2019 (Wed)
02:00:00 clear sky 13.410 13.410 13.410 23 1.21 m/h 0 %
05:00:00 clear sky 12.970 12.970 12.970 24 1.66 m/h 0 %
08:00:00 clear sky 13.600 13.600 13.600 25 1.42 m/h 0 %
11:00:00 clear sky 20.880 20.880 20.880 24 2.95 m/h 0 %
14:00:00 clear sky 23.830 23.830 23.830 22 3.03 m/h 0 %
17:00:00 scattered clouds 21.020 21.020 21.020 27 3.02 m/h 0 %
20:00:00 scattered clouds 17.150 17.150 17.150 36 3.59 m/h 0 %
23:00:00 few clouds 15.760 15.760 15.760 39 2.74 m/h 0 %
19-Dec-2019 (Thu)
02:00:00 broken clouds 14.660 14.660 14.660 39 2.14 m/h 0 %
05:00:00 broken clouds 13.690 13.690 13.690 39 1.44 m/h 0 %
08:00:00 overcast clouds 14.500 14.500 14.500 37 0.72 m/h 0 %

Famous Cities (61)